createdAt,value
2022-09-15T00:00:31.174Z,11.93
2022-09-15T00:05:33.830Z,20.80
2022-09-15T00:10:37.867Z,16.35
2022-09-15T00:15:40.688Z,16.27
2022-09-15T00:20:45.171Z,14.10
2022-09-15T00:25:50.733Z,14.18
2022-09-15T00:30:54.915Z,15.50
2022-09-15T00:35:57.793Z,14.77
2022-09-15T00:41:02.363Z,16.00
2022-09-15T00:46:05.186Z,13.30
2022-09-15T00:51:09.668Z,9.93
2022-09-15T00:56:15.538Z,10.65
2022-09-15T01:01:18.709Z,10.82
2022-09-15T01:06:26.457Z,15.18
2022-09-15T01:11:31.229Z,9.00
2022-09-15T01:16:41.393Z,9.88
2022-09-15T01:21:46.791Z,9.15
2022-09-15T01:27:00.097Z,9.98
2022-09-15T01:32:26.148Z,11.55
2022-09-15T01:37:31.670Z,10.52
2022-09-15T01:42:35.225Z,12.05
2022-09-15T01:47:40.563Z,8.90
2022-09-15T01:52:45.681Z,8.75
2022-09-15T01:57:48.462Z,10.48
2022-09-15T02:02:57.813Z,8.15
2022-09-15T02:08:05.080Z,9.55
2022-09-15T02:13:13.179Z,8.85
2022-09-15T02:18:19.224Z,8.88
2022-09-15T02:23:26.827Z,8.32
2022-09-15T02:28:32.019Z,9.30
2022-09-15T02:33:38.753Z,8.52
2022-09-15T02:38:46.387Z,9.52
2022-09-15T02:43:50.246Z,8.98
2022-09-15T02:48:54.334Z,9.98
2022-09-15T02:53:57.029Z,7.65
2022-09-15T02:58:59.769Z,8.90
2022-09-15T03:04:05.188Z,7.40
2022-09-15T03:09:08.981Z,9.48
2022-09-15T03:14:11.845Z,9.45
2022-09-15T03:19:15.966Z,8.30
2022-09-15T03:24:19.715Z,8.85
2022-09-15T03:29:22.479Z,9.02
2022-09-15T03:34:26.701Z,8.07
2022-09-15T03:39:29.484Z,10.15
2022-09-15T03:44:32.260Z,8.18
2022-09-15T03:49:40.223Z,6.82
2022-09-15T03:54:42.947Z,8.05
2022-09-15T03:59:45.653Z,7.22
2022-09-15T04:04:49.745Z,8.93
2022-09-15T04:09:52.540Z,9.27
2022-09-15T04:14:55.490Z,9.05
2022-09-15T04:19:59.620Z,8.35
2022-09-15T04:25:02.365Z,9.63
2022-09-15T04:30:05.974Z,10.75
2022-09-15T04:35:11.104Z,8.23
2022-09-15T04:40:14.134Z,9.48
2022-09-15T04:45:17.051Z,7.93
2022-09-15T04:50:21.071Z,8.25
2022-09-15T04:55:23.770Z,6.93
2022-09-15T05:00:27.033Z,8.48
2022-09-15T05:05:31.104Z,7.68
2022-09-15T05:10:34.105Z,8.45
2022-09-15T05:15:36.867Z,7.28
2022-09-15T05:20:40.897Z,7.90
2022-09-15T05:25:43.585Z,8.68
2022-09-15T05:30:46.274Z,8.63
2022-09-15T05:35:53.868Z,7.05
2022-09-15T05:41:02.812Z,7.80
2022-09-15T05:46:06.501Z,6.10
2022-09-15T05:51:10.724Z,6.28
2022-09-15T05:56:14.947Z,6.53
2022-09-15T06:01:19.353Z,6.45
2022-09-15T06:06:24.342Z,6.90
2022-09-15T06:11:28.643Z,8.73
2022-09-15T06:16:33.352Z,7.10
2022-09-15T06:21:37.507Z,11.73
2022-09-15T06:26:40.336Z,6.10
2022-09-15T06:31:43.074Z,7.15
2022-09-15T06:36:47.210Z,4.55
2022-09-15T06:42:02.339Z,5.55
2022-09-15T06:47:07.262Z,8.65
2022-09-15T06:52:11.415Z,6.93
2022-09-15T06:57:14.264Z,13.93
2022-09-15T07:02:17.017Z,5.80
2022-09-15T07:07:21.186Z,5.47
2022-09-15T07:12:23.859Z,10.02
2022-09-15T07:17:27.292Z,6.38
2022-09-15T07:22:31.586Z,8.05
2022-09-15T07:27:34.252Z,11.07
2022-09-15T07:32:37.302Z,9.23
2022-09-15T07:37:41.337Z,7.53
2022-09-15T07:42:44.354Z,11.02
2022-09-15T07:47:47.113Z,7.80
2022-09-15T07:52:51.206Z,10.85
2022-09-15T07:57:59.956Z,8.90
2022-09-15T08:03:02.656Z,7.50
2022-09-15T08:08:06.965Z,8.07
2022-09-15T08:13:09.742Z,12.15
2022-09-15T08:18:12.572Z,8.30
2022-09-15T08:23:16.668Z,8.32
2022-09-15T08:28:19.392Z,8.32
2022-09-15T08:33:22.363Z,11.63
2022-09-15T08:38:26.497Z,8.25
2022-09-15T08:43:32.513Z,8.55
2022-09-15T08:48:39.860Z,10.05
2022-09-15T08:53:46.776Z,10.70
2022-09-15T08:58:50.795Z,8.88
2022-09-15T09:04:23.935Z,9.45
2022-09-15T09:09:34.061Z,8.07
2022-09-15T09:14:45.971Z,9.20
2022-09-15T09:19:59.222Z,10.32
2022-09-15T09:25:21.131Z,10.10
2022-09-15T09:30:30.619Z,10.05
2022-09-15T09:35:35.528Z,8.63
2022-09-15T09:40:41.413Z,8.23
2022-09-15T09:45:45.859Z,9.85
2022-09-15T09:50:49.613Z,8.38
2022-09-15T09:55:55.101Z,8.82
2022-09-15T10:01:10.630Z,15.80
2022-09-15T10:06:18.178Z,38.95
2022-09-15T10:11:23.977Z,41.63
2022-09-15T10:16:27.603Z,29.35
2022-09-15T10:21:30.416Z,26.95
2022-09-15T10:26:36.007Z,20.75
2022-09-15T10:31:38.735Z,17.00
2022-09-15T10:36:41.493Z,15.13
2022-09-15T10:41:49.062Z,14.05
2022-09-15T10:47:05.740Z,13.90
2022-09-15T10:52:15.080Z,11.07
2022-09-15T10:57:33.096Z,10.52
2022-09-15T11:03:06.874Z,10.13
2022-09-15T11:08:38.636Z,11.15
2022-09-15T11:13:51.270Z,10.75
2022-09-15T11:19:03.735Z,7.10
2022-09-15T11:24:25.203Z,8.23
2022-09-15T11:29:32.219Z,7.78
2022-09-15T11:34:37.600Z,6.95
2022-09-15T11:39:45.600Z,8.00
2022-09-15T11:44:49.834Z,5.25
2022-09-15T11:49:57.072Z,7.40
2022-09-15T11:55:04.682Z,7.85
2022-09-15T12:00:13.410Z,5.18
2022-09-15T12:05:19.479Z,8.38
2022-09-15T12:10:24.758Z,6.03
2022-09-15T12:15:29.400Z,4.95
2022-09-15T12:20:37.015Z,4.50
2022-09-15T12:25:45.064Z,4.18
2022-09-15T12:30:50.412Z,4.50
2022-09-15T12:35:53.252Z,4.18
2022-09-15T12:40:58.950Z,10.35
2022-09-15T12:46:03.272Z,7.13
2022-09-15T12:51:10.363Z,7.97
2022-09-15T12:56:23.569Z,8.68
2022-09-15T13:01:49.747Z,7.75
2022-09-15T13:07:24.938Z,5.32
2022-09-15T13:12:32.082Z,6.35
2022-09-15T13:17:36.364Z,5.57
2022-09-15T13:22:43.953Z,6.88
2022-09-15T13:27:49.656Z,8.20
2022-09-15T13:32:58.840Z,6.97
2022-09-15T13:38:32.406Z,8.48
2022-09-15T13:43:50.423Z,7.85
2022-09-15T13:49:19.304Z,10.52
2022-09-15T13:54:22.049Z,5.88
2022-09-15T13:59:28.349Z,5.32
2022-09-15T14:04:32.920Z,5.82
2022-09-15T14:09:39.782Z,5.18
2022-09-15T14:14:44.535Z,6.05
2022-09-15T14:19:49.932Z,4.93
2022-09-15T14:24:54.024Z,4.65
2022-09-15T14:29:58.369Z,4.70
2022-09-15T14:35:06.448Z,5.45
2022-09-15T14:40:19.955Z,3.47
2022-09-15T14:50:57.669Z,4.60
2022-09-15T14:56:07.897Z,3.25
2022-09-15T15:01:15.642Z,2.97
2022-09-15T15:06:29.455Z,4.07
2022-09-15T15:11:34.516Z,4.95
2022-09-15T15:16:38.090Z,2.13
2022-09-15T15:21:43.636Z,3.50
2022-09-15T15:26:47.154Z,1.75
2022-09-15T15:31:49.951Z,3.38
2022-09-15T15:37:03.298Z,5.32
2022-09-15T15:42:08.934Z,3.55
2022-09-15T15:47:25.539Z,3.53
2022-09-15T15:52:29.619Z,2.50
2022-09-15T15:57:36.311Z,2.58
2022-09-15T16:02:39.050Z,3.75
2022-09-15T16:07:43.897Z,2.60
2022-09-15T16:12:46.650Z,3.45
2022-09-15T16:17:49.828Z,2.47
2022-09-15T16:22:53.959Z,3.60
2022-09-15T16:27:56.788Z,4.88
2022-09-15T16:32:59.618Z,2.95
2022-09-15T16:38:03.718Z,4.47
2022-09-15T16:43:11.076Z,5.80
2022-09-15T16:48:14.008Z,6.00
2022-09-15T16:53:19.668Z,6.35
2022-09-15T16:58:23.163Z,5.00
2022-09-15T17:03:26.947Z,8.18
2022-09-15T17:08:32.652Z,4.60
2022-09-15T17:13:35.471Z,4.38
2022-09-15T17:18:38.183Z,3.03
2022-09-15T17:23:44.590Z,6.90
2022-09-15T17:28:47.785Z,4.45
2022-09-15T17:33:53.037Z,4.68
2022-09-15T17:38:57.138Z,3.03
2022-09-15T17:43:59.898Z,5.80
2022-09-15T17:49:02.589Z,4.13
2022-09-15T17:54:07.403Z,3.58
2022-09-15T17:59:13.073Z,3.28
2022-09-15T18:04:18.919Z,4.35
2022-09-15T18:09:23.039Z,5.95
2022-09-15T18:14:25.798Z,6.95
2022-09-15T18:19:28.594Z,2.88
2022-09-15T18:24:32.643Z,3.60
2022-09-15T18:29:35.445Z,4.40
2022-09-15T18:34:38.183Z,4.32
2022-09-15T18:39:42.345Z,4.53
2022-09-15T18:44:45.222Z,3.08
2022-09-15T18:49:47.987Z,2.53
2022-09-15T18:54:55.981Z,2.53
2022-09-15T18:59:58.705Z,4.72
2022-09-15T19:05:01.433Z,5.43
2022-09-15T19:10:06.258Z,2.78
2022-09-15T19:15:11.258Z,3.15
2022-09-15T19:20:15.996Z,3.97
2022-09-15T19:25:21.363Z,3.65
2022-09-15T19:30:24.092Z,6.15
2022-09-15T19:35:26.832Z,2.63
2022-09-15T19:40:31.519Z,3.63
2022-09-15T19:45:35.152Z,2.63
2022-09-15T19:50:39.256Z,2.78
2022-09-15T19:55:43.375Z,2.80
2022-09-15T20:00:52.976Z,2.58
2022-09-15T20:05:57.596Z,3.58
2022-09-15T20:11:05.380Z,3.63
2022-09-15T20:16:08.911Z,1.83
2022-09-15T20:21:21.756Z,2.92
2022-09-15T20:26:32.014Z,3.78
2022-09-15T20:31:35.038Z,2.03
2022-09-15T20:36:39.347Z,4.35
2022-09-15T20:41:45.668Z,4.47
2022-09-15T20:46:48.495Z,2.83
2022-09-15T20:51:51.606Z,6.35
2022-09-15T20:56:55.855Z,2.47
2022-09-15T21:01:58.658Z,2.53
2022-09-15T21:07:01.425Z,4.15
2022-09-15T21:12:06.054Z,4.38
2022-09-15T21:17:08.757Z,4.20
2022-09-15T21:22:11.495Z,4.30
2022-09-15T21:27:27.377Z,3.45
2022-09-15T21:32:30.299Z,2.45
2022-09-15T21:37:33.109Z,2.75
2022-09-15T21:42:37.282Z,3.22
2022-09-15T21:47:39.919Z,4.82
2022-09-15T21:52:42.614Z,3.30
2022-09-15T21:57:47.055Z,3.80
2022-09-15T22:02:52.212Z,3.60
2022-09-15T22:07:55.161Z,3.13
2022-09-15T22:13:04.087Z,4.15
2022-09-15T22:18:07.383Z,2.63
2022-09-15T22:23:10.332Z,3.60
2022-09-15T22:28:14.380Z,4.45
2022-09-15T22:33:17.129Z,3.60
2022-09-15T22:38:19.898Z,4.28
2022-09-15T22:43:24.521Z,2.58
2022-09-15T22:48:27.226Z,5.10
2022-09-15T22:53:29.911Z,9.52
2022-09-15T22:58:34.277Z,3.13
2022-09-15T23:03:37.082Z,2.80
2022-09-15T23:08:39.936Z,2.45
2022-09-15T23:13:44.033Z,1.67
2022-09-15T23:18:46.840Z,5.95
2022-09-15T23:23:50.309Z,3.65
2022-09-15T23:28:54.733Z,4.53
2022-09-15T23:33:57.495Z,3.58
2022-09-15T23:39:00.298Z,2.28
2022-09-15T23:44:05.005Z,1.80
2022-09-15T23:49:07.812Z,2.33
2022-09-15T23:54:11.222Z,2.67
2022-09-15T23:59:15.455Z,1.80
